UWUU 251800Z VRB01MPS CAVOK M16/M23 Q1044 R14R/811050 NOSIG
QNH:(hPa/inHg/mmHg)1044 / 30.83 / 783
QFE:(hPa/inHg/mmHg)1027 / 30.34 / 771
Temperature-16
Dew Point-23
Visibility> 10000
WeatherCAVOK
Cloud Cover
Transition Altitude5000 ft.
Transition LevelFL60
SQUAWK